createdAt,value
2022-08-31T00:03:36.836Z,1.70
2022-08-31T00:08:42.730Z,1.30
2022-08-31T00:13:48.819Z,1.70
2022-08-31T00:18:54.743Z,2.10
2022-08-31T00:24:03.381Z,1.60
2022-08-31T00:29:09.853Z,2.00
2022-08-31T00:34:15.905Z,2.10
2022-08-31T00:39:22.370Z,1.40
2022-08-31T00:44:28.106Z,1.80
2022-08-31T00:49:36.030Z,1.80
2022-08-31T00:54:45.966Z,1.60
2022-08-31T00:59:52.484Z,2.10
2022-08-31T01:04:58.297Z,1.80
2022-08-31T01:10:05.859Z,1.70
2022-08-31T01:15:14.822Z,1.90
2022-08-31T01:20:25.800Z,1.90
2022-08-31T01:25:33.781Z,1.80
2022-08-31T01:30:41.438Z,2.00
2022-08-31T01:35:48.666Z,1.70
2022-08-31T01:40:58.171Z,1.60
2022-08-31T01:46:05.690Z,1.90
2022-08-31T01:51:18.730Z,1.90
2022-08-31T01:56:26.589Z,1.50
2022-08-31T02:01:35.524Z,1.80
2022-08-31T02:06:43.356Z,1.60
2022-08-31T02:11:50.434Z,1.70
2022-08-31T02:16:57.106Z,1.90
2022-08-31T02:22:03.035Z,1.80
2022-08-31T02:27:09.045Z,1.60
2022-08-31T02:32:19.793Z,1.80
2022-08-31T02:37:26.370Z,1.90
2022-08-31T02:42:52.743Z,1.80
2022-08-31T02:47:59.787Z,1.60
2022-08-31T02:53:11.585Z,2.40
2022-08-31T02:58:23.305Z,5.10
2022-08-31T03:03:30.136Z,2.60
2022-08-31T03:08:36.061Z,1.80
2022-08-31T03:13:42.820Z,2.10
2022-08-31T03:18:48.767Z,2.10
2022-08-31T03:23:54.817Z,2.00
2022-08-31T03:29:00.831Z,2.00
2022-08-31T03:34:16.203Z,2.30
2022-08-31T03:39:22.487Z,1.90
2022-08-31T03:44:28.553Z,2.00
2022-08-31T03:49:34.453Z,2.00
2022-08-31T03:54:58.598Z,2.20
2022-08-31T04:00:07.083Z,1.70
2022-08-31T04:05:21.744Z,2.10
2022-08-31T04:10:48.177Z,2.10
2022-08-31T04:16:14.730Z,1.80
2022-08-31T04:21:31.208Z,1.90
2022-08-31T04:26:40.660Z,1.80
2022-08-31T04:31:47.266Z,1.80
2022-08-31T04:36:53.379Z,1.80
2022-08-31T04:41:59.281Z,1.40
2022-08-31T04:47:08.274Z,1.70
2022-08-31T04:52:14.211Z,1.40
2022-08-31T04:57:20.207Z,2.10
2022-08-31T05:02:26.156Z,1.50
2022-08-31T05:07:39.024Z,1.40
2022-08-31T05:12:46.138Z,1.60
2022-08-31T05:17:52.418Z,1.60
2022-08-31T05:22:59.215Z,1.60
2022-08-31T05:28:05.370Z,1.60
2022-08-31T05:33:11.505Z,2.00
2022-08-31T05:38:17.683Z,1.90
2022-08-31T05:43:24.586Z,1.60
2022-08-31T05:48:33.624Z,1.70
2022-08-31T05:53:40.747Z,1.80
2022-08-31T05:58:47.858Z,1.10
2022-08-31T06:03:54.274Z,1.10
2022-08-31T06:09:00.921Z,1.00
2022-08-31T06:14:09.573Z,1.10
2022-08-31T06:19:17.039Z,1.20
2022-08-31T06:24:25.794Z,1.00
2022-08-31T06:29:31.957Z,0.90
2022-08-31T06:34:40.108Z,1.70
2022-08-31T06:39:47.828Z,0.90
2022-08-31T06:45:13.739Z,0.80
2022-08-31T06:50:22.102Z,0.80
2022-08-31T06:55:28.773Z,0.80
2022-08-31T07:00:53.970Z,0.70
2022-08-31T07:06:25.889Z,0.60
2022-08-31T07:11:34.417Z,0.60
2022-08-31T07:21:47.357Z,1.20
2022-08-31T07:27:00.143Z,0.70
2022-08-31T07:32:13.729Z,0.50
2022-08-31T07:37:39.389Z,0.40
2022-08-31T07:42:47.202Z,0.50
2022-08-31T07:47:55.080Z,0.50
2022-08-31T07:53:08.517Z,0.50
2022-08-31T07:58:31.363Z,0.50
2022-08-31T08:03:41.041Z,0.50
2022-08-31T08:09:26.607Z,0.60
2022-08-31T08:14:39.436Z,0.40
2022-08-31T08:19:54.300Z,0.30
2022-08-31T08:25:01.140Z,0.40
2022-08-31T08:30:19.219Z,0.40
2022-08-31T08:35:32.201Z,0.50
2022-08-31T08:40:44.404Z,0.50
2022-08-31T08:45:55.366Z,0.40
2022-08-31T08:51:09.619Z,0.30
2022-08-31T08:56:33.418Z,0.40
2022-08-31T09:01:46.082Z,0.40
2022-08-31T09:06:59.793Z,0.50
2022-08-31T09:12:22.597Z,0.40
2022-08-31T09:17:46.210Z,0.20
2022-08-31T09:22:55.737Z,0.20
2022-08-31T09:28:04.077Z,0.30
2022-08-31T09:33:19.681Z,0.60
2022-08-31T09:38:31.295Z,0.30
2022-08-31T09:43:38.125Z,0.30
2022-08-31T09:48:51.979Z,0.30
2022-08-31T09:54:25.937Z,0.40
2022-08-31T09:59:37.580Z,0.40
2022-08-31T10:04:54.729Z,0.50
2022-08-31T10:10:04.667Z,0.30
2022-08-31T10:15:17.946Z,0.40
2022-08-31T10:20:30.860Z,0.40
2022-08-31T10:25:42.781Z,0.50
2022-08-31T10:30:58.249Z,0.50
2022-08-31T10:36:08.092Z,0.60
2022-08-31T10:41:18.999Z,0.50
2022-08-31T10:46:25.291Z,0.60
2022-08-31T10:51:41.086Z,0.70
2022-08-31T10:57:00.783Z,0.40
2022-08-31T11:02:26.890Z,0.60
2022-08-31T11:07:47.737Z,0.40
2022-08-31T11:13:00.884Z,0.80
2022-08-31T11:18:40.340Z,0.60
2022-08-31T11:24:03.970Z,0.80
2022-08-31T11:29:21.613Z,0.90
2022-08-31T11:34:34.677Z,0.60
2022-08-31T11:39:45.523Z,0.70
2022-08-31T11:45:07.642Z,0.70
2022-08-31T11:50:55.453Z,0.60
2022-08-31T11:56:06.593Z,0.60
2022-08-31T12:01:34.239Z,0.70
2022-08-31T12:07:11.342Z,0.90
2022-08-31T12:12:28.046Z,0.50
2022-08-31T12:17:44.406Z,0.50
2022-08-31T12:23:40.699Z,0.60
2022-08-31T12:29:10.078Z,0.60
2022-08-31T12:34:19.769Z,0.40
2022-08-31T12:39:32.117Z,0.70
2022-08-31T12:44:47.652Z,0.50
2022-08-31T12:50:05.891Z,1.10
2022-08-31T12:55:28.873Z,0.60
2022-08-31T13:00:39.446Z,0.40
2022-08-31T13:06:01.791Z,0.60
2022-08-31T13:11:24.413Z,0.40
2022-08-31T13:16:31.619Z,0.40
2022-08-31T13:21:38.341Z,0.60
2022-08-31T13:26:45.504Z,0.50
2022-08-31T13:31:52.674Z,0.50
2022-08-31T13:37:00.075Z,0.70
2022-08-31T13:42:08.417Z,0.50
2022-08-31T13:47:20.674Z,0.50
2022-08-31T13:52:29.111Z,0.80
2022-08-31T13:57:38.305Z,0.60
2022-08-31T14:02:44.994Z,0.60
2022-08-31T14:07:58.066Z,0.50
2022-08-31T14:13:18.426Z,0.50
2022-08-31T14:18:27.962Z,0.60
2022-08-31T14:23:36.019Z,0.50
2022-08-31T14:28:43.261Z,0.60
2022-08-31T14:33:56.015Z,0.60
2022-08-31T14:39:02.127Z,0.60
2022-08-31T14:44:09.460Z,0.40
2022-08-31T14:49:18.756Z,0.70
2022-08-31T14:54:24.808Z,0.50
2022-08-31T14:59:30.944Z,0.70
2022-08-31T15:04:45.407Z,0.50
2022-08-31T15:09:51.980Z,0.60
2022-08-31T15:15:00.725Z,0.60
2022-08-31T15:20:11.371Z,0.80
2022-08-31T15:25:18.514Z,0.60
2022-08-31T15:30:24.526Z,0.80
2022-08-31T15:35:31.923Z,0.50
2022-08-31T15:40:39.217Z,0.70
2022-08-31T15:46:57.805Z,0.70
2022-08-31T15:52:12.854Z,0.80
2022-08-31T15:57:18.989Z,0.80
2022-08-31T16:02:24.842Z,1.90
2022-08-31T16:07:30.982Z,0.90
2022-08-31T16:12:36.898Z,0.70
2022-08-31T16:17:43.142Z,0.60
2022-08-31T16:22:48.908Z,0.90
2022-08-31T16:27:57.823Z,0.70
2022-08-31T16:33:03.880Z,2.10
2022-08-31T16:38:09.824Z,1.40
2022-08-31T16:43:15.973Z,13.20
2022-08-31T16:48:40.446Z,13.00
2022-08-31T16:53:47.810Z,2.50
2022-08-31T16:58:55.176Z,1.60
2022-08-31T17:04:04.765Z,1.60
2022-08-31T17:09:16.153Z,2.80
2022-08-31T17:14:26.352Z,4.30
2022-08-31T17:19:34.800Z,2.90
2022-08-31T17:24:46.048Z,2.40
2022-08-31T17:29:53.900Z,1.90
2022-08-31T17:35:00.199Z,2.10
2022-08-31T17:40:09.484Z,1.80
2022-08-31T17:45:15.815Z,4.00
2022-08-31T17:50:21.883Z,1.70
2022-08-31T17:55:29.279Z,3.00
2022-08-31T18:00:35.967Z,1.70
2022-08-31T18:05:45.913Z,2.00
2022-08-31T18:10:53.542Z,1.80
2022-08-31T18:16:01.041Z,1.90
2022-08-31T18:21:08.884Z,2.90
2022-08-31T18:26:18.062Z,5.00
2022-08-31T18:31:30.769Z,8.90
2022-08-31T18:36:38.903Z,2.60
2022-08-31T18:42:08.333Z,2.80
2022-08-31T18:47:15.811Z,2.30
2022-08-31T18:52:22.827Z,1.90
2022-08-31T18:57:29.391Z,2.80
2022-08-31T19:02:40.424Z,1.50
2022-08-31T19:07:46.490Z,1.60
2022-08-31T19:12:52.342Z,2.10
2022-08-31T19:17:58.213Z,1.30
2022-08-31T19:23:05.333Z,1.70
2022-08-31T19:28:11.691Z,1.90
2022-08-31T19:33:18.897Z,1.50
2022-08-31T19:38:24.966Z,1.60
2022-08-31T19:43:53.645Z,1.50
2022-08-31T19:49:00.309Z,1.30
2022-08-31T19:54:09.092Z,1.30
2022-08-31T19:59:21.135Z,1.40
2022-08-31T20:04:29.797Z,1.20
2022-08-31T20:09:36.569Z,1.30
2022-08-31T20:14:42.431Z,1.30
2022-08-31T20:19:49.598Z,1.30
2022-08-31T20:24:55.642Z,1.20
2022-08-31T20:30:02.039Z,1.40
2022-08-31T20:35:09.384Z,1.30
2022-08-31T20:40:17.233Z,1.30
2022-08-31T20:45:23.359Z,1.30
2022-08-31T20:50:29.816Z,1.30
2022-08-31T20:55:35.779Z,1.30
2022-08-31T21:00:47.454Z,1.10
2022-08-31T21:05:53.255Z,1.20
2022-08-31T21:10:59.121Z,1.30
2022-08-31T21:16:05.563Z,1.20
2022-08-31T21:21:17.611Z,1.40
2022-08-31T21:26:25.994Z,1.60
2022-08-31T21:31:31.860Z,1.40
2022-08-31T21:36:41.150Z,1.30
2022-08-31T21:41:48.781Z,1.20
2022-08-31T21:46:54.658Z,1.30
2022-08-31T21:52:00.586Z,1.20
2022-08-31T21:57:06.943Z,1.20
2022-08-31T22:02:14.766Z,1.20
2022-08-31T22:07:20.956Z,1.00
2022-08-31T22:12:26.818Z,1.10
2022-08-31T22:17:59.352Z,1.10
2022-08-31T22:22:59.155Z,1.30
2022-08-31T22:28:06.449Z,1.00
2022-08-31T22:33:12.140Z,1.20
2022-08-31T22:38:19.129Z,1.20
2022-08-31T22:43:25.389Z,1.00
2022-08-31T22:48:31.301Z,1.10
2022-08-31T22:53:37.242Z,1.00
2022-08-31T22:58:43.760Z,1.10
2022-08-31T23:03:51.219Z,1.50
2022-08-31T23:08:58.253Z,1.10
2022-08-31T23:14:07.616Z,1.10
2022-08-31T23:19:16.536Z,1.10
2022-08-31T23:24:26.837Z,0.90
2022-08-31T23:29:35.219Z,1.00
2022-08-31T23:34:41.844Z,1.10
2022-08-31T23:39:48.194Z,1.10
2022-08-31T23:44:54.437Z,1.30
2022-08-31T23:50:02.858Z,1.00
2022-08-31T23:55:11.931Z,1.10
